createdAt,value
2018-04-07T00:01:00.159Z,11.0
2018-04-07T00:02:01.514Z,11.0
2018-04-07T00:03:02.864Z,11.0
2018-04-07T00:04:04.215Z,10.9
2018-04-07T00:05:05.562Z,11.0
2018-04-07T00:06:06.919Z,11.0
2018-04-07T00:07:08.281Z,10.9
2018-04-07T00:08:09.632Z,10.9
2018-04-07T00:09:10.987Z,10.9
2018-04-07T00:10:12.346Z,10.9
2018-04-07T00:11:13.694Z,10.9
2018-04-07T00:12:15.051Z,10.9
2018-04-07T00:13:16.402Z,10.8
2018-04-07T00:14:17.753Z,10.8
2018-04-07T00:15:19.102Z,10.8
2018-04-07T00:16:20.452Z,10.8
2018-04-07T00:17:21.805Z,10.9
2018-04-07T00:18:23.156Z,10.9
2018-04-07T00:19:24.511Z,10.9
2018-04-07T00:20:25.867Z,10.9
2018-04-07T00:21:27.222Z,10.8
2018-04-07T00:22:28.577Z,10.8
2018-04-07T00:23:29.940Z,10.9
2018-04-07T00:24:31.290Z,10.9
2018-04-07T00:25:32.643Z,10.8
2018-04-07T00:26:34.002Z,10.9
2018-04-07T00:27:35.351Z,10.8
2018-04-07T00:28:36.706Z,10.8
2018-04-07T00:29:38.057Z,10.8
2018-04-07T00:30:39.411Z,10.8
2018-04-07T00:31:40.756Z,10.7
2018-04-07T00:32:42.109Z,10.8
2018-04-07T00:33:43.457Z,10.7
2018-04-07T00:34:44.815Z,10.7
2018-04-07T00:35:46.168Z,10.8
2018-04-07T00:36:47.517Z,10.7
2018-04-07T00:37:48.868Z,10.8
2018-04-07T00:38:50.222Z,10.8
2018-04-07T00:39:51.570Z,10.7
2018-04-07T00:40:52.925Z,10.7
2018-04-07T00:41:54.280Z,10.7
2018-04-07T00:42:55.638Z,10.6
2018-04-07T00:43:56.992Z,10.7
2018-04-07T00:44:58.340Z,10.6
2018-04-07T00:45:59.689Z,10.6
2018-04-07T00:47:01.045Z,10.6
2018-04-07T00:48:02.393Z,10.7
2018-04-07T00:49:03.783Z,10.7
2018-04-07T00:50:05.133Z,10.6
2018-04-07T00:51:06.492Z,10.7
2018-04-07T00:52:07.846Z,10.7
2018-04-07T00:53:09.215Z,10.7
2018-04-07T00:54:10.567Z,10.6
2018-04-07T00:55:11.918Z,10.7
2018-04-07T00:56:13.269Z,10.6
2018-04-07T00:57:14.630Z,10.5
2018-04-07T00:58:15.985Z,10.5
2018-04-07T00:59:17.333Z,10.6
2018-04-07T01:00:18.684Z,10.5
2018-04-07T01:01:20.047Z,10.4
2018-04-07T01:02:21.397Z,10.5
2018-04-07T01:03:22.750Z,10.6
2018-04-07T01:04:24.112Z,10.6
2018-04-07T01:05:25.477Z,10.5
2018-04-07T01:06:26.832Z,10.5
2018-04-07T01:07:28.189Z,10.6
2018-04-07T01:08:29.535Z,10.5
2018-04-07T01:09:30.909Z,10.5
2018-04-07T01:10:32.259Z,10.5
2018-04-07T01:11:33.611Z,10.6
2018-04-07T01:12:34.968Z,10.7
2018-04-07T01:13:36.338Z,10.5
2018-04-07T01:14:37.686Z,10.6
2018-04-07T01:15:39.034Z,10.5
2018-04-07T01:16:40.387Z,10.6
2018-04-07T01:17:41.742Z,10.6
2018-04-07T01:18:43.095Z,10.6
2018-04-07T01:19:44.452Z,10.5
2018-04-07T01:20:45.804Z,10.5
2018-04-07T01:21:47.160Z,10.6
2018-04-07T01:22:48.510Z,10.6
2018-04-07T01:23:49.855Z,10.5
2018-04-07T01:24:51.210Z,10.6
2018-04-07T01:25:52.557Z,10.6
2018-04-07T01:26:54.837Z,10.5
2018-04-07T01:27:56.191Z,10.6
2018-04-07T01:28:57.541Z,10.5
2018-04-07T01:29:58.895Z,10.5
2018-04-07T01:31:00.251Z,10.5
2018-04-07T01:32:01.605Z,10.5
2018-04-07T01:33:02.949Z,10.6
2018-04-07T01:34:04.305Z,10.6
2018-04-07T01:35:05.659Z,10.5
2018-04-07T01:36:07.010Z,10.5
2018-04-07T01:37:08.369Z,10.6
2018-04-07T01:38:09.727Z,10.4
2018-04-07T01:39:11.083Z,10.5
2018-04-07T01:40:12.426Z,10.4
2018-04-07T01:41:13.783Z,10.4
2018-04-07T01:42:15.139Z,10.5
2018-04-07T01:43:16.493Z,10.4
2018-04-07T01:44:17.856Z,10.5
2018-04-07T01:45:19.203Z,10.4
2018-04-07T01:46:20.552Z,10.4
2018-04-07T01:47:21.912Z,10.3
2018-04-07T01:48:23.264Z,10.3
2018-04-07T01:49:24.621Z,10.3
2018-04-07T01:50:25.977Z,10.4
2018-04-07T01:51:27.330Z,10.3
2018-04-07T01:52:28.681Z,10.3
2018-04-07T01:53:30.030Z,10.2
2018-04-07T01:54:31.395Z,10.3
2018-04-07T01:55:32.749Z,10.4
2018-04-07T01:56:34.098Z,10.3
2018-04-07T01:57:35.453Z,10.3
2018-04-07T01:58:36.803Z,10.3
2018-04-07T01:59:38.153Z,10.3
2018-04-07T02:00:39.501Z,10.3
2018-04-07T02:01:40.853Z,10.3
2018-04-07T02:02:42.212Z,10.3
2018-04-07T02:03:43.563Z,10.2
2018-04-07T02:04:44.911Z,10.2
2018-04-07T02:05:46.257Z,10.2
2018-04-07T02:06:47.602Z,10.2
2018-04-07T02:07:48.960Z,10.2
2018-04-07T02:08:50.308Z,10.3
2018-04-07T02:09:51.662Z,10.2
2018-04-07T02:10:53.016Z,10.2
2018-04-07T02:11:54.382Z,10.2
2018-04-07T02:12:55.768Z,10.3
2018-04-07T02:13:57.092Z,10.3
2018-04-07T02:14:58.441Z,10.3
2018-04-07T02:15:59.794Z,10.4
2018-04-07T02:17:01.146Z,10.3
2018-04-07T02:18:02.501Z,10.3
2018-04-07T02:19:03.851Z,10.2
2018-04-07T02:20:05.205Z,10.3
2018-04-07T02:21:06.557Z,10.3
2018-04-07T02:22:07.914Z,10.3
2018-04-07T02:23:09.263Z,10.2
2018-04-07T02:24:10.623Z,10.3
2018-04-07T02:25:11.976Z,10.3
2018-04-07T02:26:13.332Z,10.2
2018-04-07T02:27:14.680Z,10.3
2018-04-07T02:28:16.023Z,10.2
2018-04-07T02:29:17.379Z,10.3
2018-04-07T02:30:18.726Z,10.2
2018-04-07T02:31:20.080Z,10.2
2018-04-07T02:32:21.434Z,10.2
2018-04-07T02:33:22.787Z,10.2
2018-04-07T02:34:24.142Z,10.3
2018-04-07T02:35:25.498Z,10.3
2018-04-07T02:36:26.845Z,10.3
2018-04-07T02:37:28.200Z,10.3
2018-04-07T02:38:29.548Z,10.4
2018-04-07T02:39:30.910Z,10.4
2018-04-07T02:40:32.253Z,10.4
2018-04-07T02:41:33.611Z,10.4
2018-04-07T02:42:34.962Z,10.4
2018-04-07T02:43:36.320Z,10.4
2018-04-07T02:44:37.672Z,10.5
2018-04-07T02:45:39.017Z,10.5
2018-04-07T02:46:40.379Z,10.5
2018-04-07T02:47:41.723Z,10.4
2018-04-07T02:48:43.071Z,10.5
2018-04-07T02:49:44.427Z,10.5
2018-04-07T02:50:45.774Z,10.5
2018-04-07T02:51:47.130Z,10.4
2018-04-07T02:52:48.482Z,10.4
2018-04-07T02:53:49.840Z,10.4
2018-04-07T02:54:51.194Z,10.3
2018-04-07T02:55:52.548Z,10.3
2018-04-07T02:56:53.906Z,10.4
2018-04-07T02:57:55.251Z,10.4
2018-04-07T02:58:56.604Z,10.3
2018-04-07T02:59:57.966Z,10.3
2018-04-07T03:00:59.311Z,10.2
2018-04-07T03:02:00.666Z,10.2
2018-04-07T03:03:02.017Z,10.2
2018-04-07T03:04:03.367Z,10.2
2018-04-07T03:05:04.725Z,10.2
2018-04-07T03:06:06.086Z,10.3
2018-04-07T03:07:07.447Z,10.3
2018-04-07T03:08:08.789Z,10.2
2018-04-07T03:09:10.132Z,10.2
2018-04-07T03:10:11.490Z,10.2
2018-04-07T03:11:12.835Z,10.2
2018-04-07T03:12:14.194Z,10.2
2018-04-07T03:13:15.590Z,10.1
2018-04-07T03:14:16.943Z,10.1
2018-04-07T03:15:18.292Z,10.1
2018-04-07T03:16:19.640Z,10.2
2018-04-07T03:17:20.984Z,10.1
2018-04-07T03:18:22.335Z,10.1
2018-04-07T03:19:23.699Z,10.1
2018-04-07T03:20:25.052Z,10.1
2018-04-07T03:21:26.402Z,10.0
2018-04-07T03:22:27.766Z,10.0
2018-04-07T03:23:29.115Z,10.0
2018-04-07T03:24:30.464Z,9.9
2018-04-07T03:25:31.819Z,10.0
2018-04-07T03:26:33.168Z,10.0
2018-04-07T03:27:34.521Z,9.9
2018-04-07T03:28:35.874Z,10.0
2018-04-07T03:29:37.231Z,9.9
2018-04-07T03:30:38.577Z,10.0
2018-04-07T03:31:39.929Z,9.9
2018-04-07T03:32:41.277Z,10.0
2018-04-07T03:33:42.634Z,10.0
2018-04-07T03:34:43.985Z,9.9
2018-04-07T03:35:45.331Z,10.0
2018-04-07T03:36:46.684Z,9.9
2018-04-07T03:37:48.037Z,9.9
2018-04-07T03:38:49.385Z,9.9
2018-04-07T03:39:50.737Z,9.9
2018-04-07T03:40:52.089Z,9.9
2018-04-07T03:41:53.441Z,9.9
2018-04-07T03:42:54.795Z,9.9
2018-04-07T03:43:56.175Z,9.9
2018-04-07T03:44:57.541Z,9.9
2018-04-07T03:45:58.885Z,9.8
2018-04-07T03:47:00.242Z,9.8
2018-04-07T03:48:01.593Z,9.8
2018-04-07T03:49:02.943Z,9.8
2018-04-07T03:50:04.287Z,9.8
2018-04-07T03:51:05.640Z,9.9
2018-04-07T03:52:06.995Z,9.8
2018-04-07T03:53:08.341Z,9.9
2018-04-07T03:54:09.696Z,9.8
2018-04-07T03:55:11.045Z,9.8
2018-04-07T03:56:12.396Z,9.7
2018-04-07T03:57:13.751Z,9.7
2018-04-07T03:58:15.105Z,9.7
2018-04-07T03:59:16.452Z,9.7
2018-04-07T04:00:17.802Z,9.7
2018-04-07T04:01:19.156Z,9.7
2018-04-07T04:02:20.503Z,9.8
2018-04-07T04:03:21.853Z,9.7
2018-04-07T04:04:23.209Z,9.8
2018-04-07T04:05:24.559Z,9.7
2018-04-07T04:06:25.910Z,9.7
2018-04-07T04:07:27.267Z,9.7
2018-04-07T04:08:28.619Z,9.7
2018-04-07T04:09:29.976Z,9.7
2018-04-07T04:10:31.322Z,9.7
2018-04-07T04:11:32.674Z,9.7
2018-04-07T04:12:34.022Z,9.6
2018-04-07T04:13:35.377Z,9.6
2018-04-07T04:14:36.722Z,9.6
2018-04-07T04:15:38.070Z,9.5
2018-04-07T04:16:39.422Z,9.6
2018-04-07T04:17:40.770Z,9.6
2018-04-07T04:18:42.121Z,9.6
2018-04-07T04:19:43.481Z,9.5
2018-04-07T04:20:44.824Z,9.6
2018-04-07T04:21:46.169Z,9.6
2018-04-07T04:22:47.511Z,9.6
2018-04-07T04:23:48.871Z,9.5
2018-04-07T04:24:50.220Z,9.5
2018-04-07T04:25:51.569Z,9.5
2018-04-07T04:26:52.925Z,9.5
2018-04-07T04:27:54.273Z,9.4
2018-04-07T04:28:55.631Z,9.4
2018-04-07T04:29:56.975Z,9.4
2018-04-07T04:30:58.328Z,9.4
2018-04-07T04:31:59.682Z,9.4
2018-04-07T04:33:01.040Z,9.4
2018-04-07T04:34:02.391Z,9.4
2018-04-07T04:35:03.737Z,9.4
2018-04-07T04:36:05.082Z,9.4
2018-04-07T04:37:06.439Z,9.4
2018-04-07T04:38:07.785Z,9.4
2018-04-07T04:39:09.140Z,9.4
2018-04-07T04:40:10.488Z,9.4
2018-04-07T04:41:11.843Z,9.4
2018-04-07T04:42:13.195Z,9.4
2018-04-07T04:43:14.550Z,9.4
2018-04-07T04:44:15.910Z,9.3
2018-04-07T04:45:17.260Z,9.3
2018-04-07T04:46:18.621Z,9.4
2018-04-07T04:47:19.974Z,9.4
2018-04-07T04:48:21.326Z,9.3
2018-04-07T04:49:22.678Z,9.3
2018-04-07T04:50:24.541Z,9.4
2018-04-07T04:51:25.905Z,9.3
2018-04-07T04:52:27.265Z,9.4
2018-04-07T04:53:28.616Z,9.3
2018-04-07T04:54:29.968Z,9.4
2018-04-07T04:55:31.322Z,9.4
2018-04-07T04:56:32.684Z,9.4
2018-04-07T04:57:34.035Z,9.3
2018-04-07T04:58:35.391Z,9.4
2018-04-07T04:59:36.739Z,9.5
2018-04-07T05:00:38.091Z,9.4
2018-04-07T05:01:39.454Z,9.5
2018-04-07T05:02:40.811Z,9.5
2018-04-07T05:03:42.178Z,9.4
2018-04-07T05:04:43.538Z,9.5
2018-04-07T05:05:44.898Z,9.4
2018-04-07T05:06:46.244Z,9.4
2018-04-07T05:07:47.603Z,9.5
2018-04-07T05:08:48.964Z,9.5
2018-04-07T05:09:50.323Z,9.5
2018-04-07T05:10:51.673Z,9.4
2018-04-07T05:11:53.030Z,9.4
2018-04-07T05:12:54.402Z,9.5
2018-04-07T05:13:55.753Z,9.5
2018-04-07T05:14:57.423Z,9.5
2018-04-07T05:15:58.785Z,9.4
2018-04-07T05:17:00.137Z,9.4
2018-04-07T05:18:01.493Z,9.4
2018-04-07T05:19:02.852Z,9.4
2018-04-07T05:20:04.213Z,9.4
2018-04-07T05:21:05.567Z,9.4
2018-04-07T05:22:06.924Z,9.4
2018-04-07T05:23:08.284Z,9.4
2018-04-07T05:24:09.644Z,9.4
2018-04-07T05:25:10.989Z,9.4
2018-04-07T05:26:12.344Z,9.4
2018-04-07T05:27:13.700Z,9.4
2018-04-07T05:28:15.059Z,9.5
2018-04-07T05:29:16.422Z,9.4
2018-04-07T05:30:17.775Z,9.3
2018-04-07T05:31:19.135Z,9.4
2018-04-07T05:32:20.481Z,9.4
2018-04-07T05:33:21.843Z,9.4
2018-04-07T05:34:23.205Z,9.4
2018-04-07T05:35:24.557Z,9.4
2018-04-07T05:36:25.976Z,9.4
2018-04-07T05:37:27.334Z,9.4
2018-04-07T05:38:28.695Z,9.4
2018-04-07T05:39:30.056Z,9.4
2018-04-07T05:40:31.399Z,9.4
2018-04-07T05:41:32.752Z,9.4
2018-04-07T05:42:34.106Z,9.4
2018-04-07T05:43:35.470Z,9.5
2018-04-07T05:44:36.822Z,9.5
2018-04-07T05:45:38.179Z,9.5
2018-04-07T05:46:39.542Z,9.5
2018-04-07T05:47:40.899Z,9.5
2018-04-07T05:48:42.254Z,9.4
2018-04-07T05:49:43.610Z,9.5
2018-04-07T05:50:44.980Z,9.5
2018-04-07T05:51:46.333Z,9.4
2018-04-07T05:52:47.697Z,9.4
2018-04-07T05:53:49.051Z,9.4
2018-04-07T05:54:50.408Z,9.4
2018-04-07T05:55:51.768Z,9.6
2018-04-07T05:56:53.125Z,9.6
2018-04-07T05:57:54.482Z,9.7
2018-04-07T05:58:55.840Z,9.7
2018-04-07T05:59:57.213Z,9.7
2018-04-07T06:00:58.569Z,9.8
2018-04-07T06:01:59.921Z,9.8
2018-04-07T06:03:01.277Z,9.9
2018-04-07T06:04:02.635Z,9.8
2018-04-07T06:05:04.003Z,9.9
2018-04-07T06:06:05.356Z,9.8
2018-04-07T06:07:06.711Z,9.8
2018-04-07T06:08:08.069Z,9.8
2018-04-07T06:09:09.426Z,9.8
2018-04-07T06:10:10.779Z,9.8
2018-04-07T06:11:12.137Z,9.9
2018-04-07T06:12:13.501Z,9.9
2018-04-07T06:13:14.855Z,9.8
2018-04-07T06:14:16.246Z,9.9
2018-04-07T06:15:17.567Z,9.8
2018-04-07T06:16:18.930Z,9.8
2018-04-07T06:17:20.284Z,9.8
2018-04-07T06:18:21.635Z,9.9
2018-04-07T06:19:23.004Z,10.0
2018-04-07T06:20:24.352Z,9.9
2018-04-07T06:21:25.717Z,9.9
2018-04-07T06:22:27.066Z,9.9
2018-04-07T06:23:28.427Z,9.9
2018-04-07T06:24:29.780Z,10.0
2018-04-07T06:25:31.909Z,9.9
2018-04-07T06:26:33.262Z,10.0
2018-04-07T06:27:34.617Z,9.9
2018-04-07T06:28:35.973Z,9.9
2018-04-07T06:29:37.326Z,9.9
2018-04-07T06:30:38.680Z,10.0
2018-04-07T06:31:40.040Z,10.0
2018-04-07T06:32:41.404Z,10.0
2018-04-07T06:33:42.765Z,10.0
2018-04-07T06:34:44.124Z,10.0
2018-04-07T06:35:45.490Z,10.1
2018-04-07T06:36:46.838Z,10.1
2018-04-07T06:37:48.201Z,10.1
2018-04-07T06:38:49.554Z,10.1
2018-04-07T06:39:50.915Z,10.2
2018-04-07T06:40:52.280Z,10.3
2018-04-07T06:41:53.642Z,10.4
2018-04-07T06:42:55.013Z,10.5
2018-04-07T06:43:56.380Z,10.7
2018-04-07T06:44:57.745Z,10.9
2018-04-07T06:45:59.111Z,11.0
2018-04-07T06:47:00.473Z,11.1
2018-04-07T06:48:01.887Z,11.3
2018-04-07T06:49:03.167Z,11.4
2018-04-07T06:50:04.528Z,11.5
2018-04-07T06:51:05.887Z,11.6
2018-04-07T06:52:07.255Z,11.7
2018-04-07T06:53:08.630Z,11.9
2018-04-07T06:54:09.994Z,11.9
2018-04-07T06:55:11.348Z,12.0
2018-04-07T06:56:12.717Z,12.1
2018-04-07T06:57:14.090Z,12.2
2018-04-07T06:58:15.451Z,12.3
2018-04-07T06:59:16.810Z,12.3
2018-04-07T07:00:18.174Z,12.4
2018-04-07T07:01:19.542Z,12.4
2018-04-07T07:02:20.919Z,12.6
2018-04-07T07:03:22.291Z,12.6
2018-04-07T07:04:23.642Z,12.5
2018-04-07T07:05:25.007Z,12.6
2018-04-07T07:06:26.397Z,12.6
2018-04-07T07:07:27.771Z,12.7
2018-04-07T07:08:29.133Z,12.8
2018-04-07T07:09:30.512Z,12.8
2018-04-07T07:10:31.882Z,12.8
2018-04-07T07:11:33.249Z,13.0
2018-04-07T07:12:34.608Z,13.0
2018-04-07T07:13:35.980Z,13.1
2018-04-07T07:14:37.340Z,13.1
2018-04-07T07:15:38.707Z,13.2
2018-04-07T07:16:40.078Z,13.4
2018-04-07T07:17:41.448Z,13.3
2018-04-07T07:18:42.818Z,13.3
2018-04-07T07:19:44.185Z,13.3
2018-04-07T07:20:45.552Z,13.2
2018-04-07T07:21:46.924Z,13.2
2018-04-07T07:22:48.295Z,13.2
2018-04-07T07:23:49.660Z,13.2
2018-04-07T07:24:51.025Z,13.2
2018-04-07T07:25:52.398Z,13.2
2018-04-07T07:26:53.769Z,13.4
2018-04-07T07:27:55.158Z,13.5
2018-04-07T07:28:56.544Z,13.4
2018-04-07T07:29:57.926Z,13.5
2018-04-07T07:30:59.299Z,13.5
2018-04-07T07:32:00.668Z,13.5
2018-04-07T07:33:02.041Z,13.5
2018-04-07T07:34:03.426Z,13.5
2018-04-07T07:35:04.793Z,13.4
2018-04-07T07:36:06.184Z,13.4
2018-04-07T07:37:07.555Z,13.5
2018-04-07T07:38:08.937Z,13.4
2018-04-07T07:39:10.312Z,13.5
2018-04-07T07:40:11.686Z,13.6
2018-04-07T07:41:13.059Z,13.7
2018-04-07T07:42:14.433Z,13.6
2018-04-07T07:43:15.815Z,13.8
2018-04-07T07:44:17.190Z,13.9
2018-04-07T07:45:18.585Z,14.1
2018-04-07T07:46:19.977Z,14.3
2018-04-07T07:47:21.394Z,14.3
2018-04-07T07:48:22.720Z,14.6
2018-04-07T07:49:24.120Z,14.8
2018-04-07T07:50:25.485Z,14.9
2018-04-07T07:51:26.864Z,15.1
2018-04-07T07:52:28.246Z,15.2
2018-04-07T07:53:29.611Z,15.3
2018-04-07T07:54:30.983Z,15.4
2018-04-07T07:55:32.370Z,15.4
2018-04-07T07:56:33.749Z,15.4
2018-04-07T07:57:35.123Z,15.5
2018-04-07T07:58:36.489Z,15.6
2018-04-07T07:59:37.853Z,15.4
2018-04-07T08:00:39.226Z,15.4
2018-04-07T08:01:40.603Z,15.4
2018-04-07T08:02:41.975Z,15.6
2018-04-07T08:03:43.354Z,15.9
2018-04-07T08:04:44.716Z,15.9
2018-04-07T08:05:46.095Z,15.9
2018-04-07T08:06:47.463Z,15.9
2018-04-07T08:07:48.840Z,15.9
2018-04-07T08:08:50.219Z,16.0
2018-04-07T08:09:51.603Z,16.1
2018-04-07T08:10:52.970Z,16.3
2018-04-07T08:11:54.357Z,16.5
2018-04-07T08:12:55.729Z,16.6
2018-04-07T08:13:57.115Z,16.7
2018-04-07T08:14:58.493Z,16.9
2018-04-07T08:15:59.860Z,17.1
2018-04-07T08:17:01.231Z,17.0
2018-04-07T08:18:02.603Z,17.0
2018-04-07T08:19:03.987Z,17.0
2018-04-07T08:20:05.355Z,16.8
2018-04-07T08:21:06.738Z,16.8
2018-04-07T08:22:08.119Z,16.7
2018-04-07T08:23:09.497Z,16.7
2018-04-07T08:24:10.876Z,16.8
2018-04-07T08:25:12.256Z,16.8
2018-04-07T08:26:13.656Z,16.7
2018-04-07T08:27:15.009Z,16.6
2018-04-07T08:28:16.390Z,16.5
2018-04-07T08:29:17.770Z,16.3
2018-04-07T08:30:19.144Z,16.2
2018-04-07T08:31:20.518Z,16.0
2018-04-07T08:32:21.891Z,16.1
2018-04-07T08:33:23.270Z,16.1
2018-04-07T08:34:24.654Z,16.1
2018-04-07T08:35:26.024Z,15.9
2018-04-07T08:36:27.416Z,16.0
2018-04-07T08:37:28.793Z,16.1
2018-04-07T08:38:30.182Z,16.2
2018-04-07T08:39:31.648Z,16.3
2018-04-07T08:40:32.928Z,16.5
2018-04-07T08:41:34.304Z,16.4
2018-04-07T08:42:35.676Z,16.4
2018-04-07T08:43:37.054Z,16.3
2018-04-07T08:44:38.436Z,16.4
2018-04-07T08:45:39.803Z,16.5
2018-04-07T08:46:41.181Z,16.5
2018-04-07T08:47:42.550Z,16.7
2018-04-07T08:48:43.931Z,16.8
2018-04-07T08:49:45.300Z,16.9
2018-04-07T08:50:46.872Z,17.1
2018-04-07T08:51:48.347Z,17.1
2018-04-07T08:52:49.715Z,17.3
2018-04-07T08:53:51.098Z,17.3
2018-04-07T08:54:52.473Z,17.3
2018-04-07T08:55:53.850Z,17.3
2018-04-07T08:56:55.236Z,17.2
2018-04-07T08:57:56.610Z,17.3
2018-04-07T08:58:57.988Z,17.4
2018-04-07T08:59:59.357Z,17.5
2018-04-07T09:01:00.750Z,17.6
2018-04-07T09:02:02.169Z,17.7
2018-04-07T09:03:03.514Z,17.8
2018-04-07T09:04:04.893Z,17.6
2018-04-07T09:05:06.267Z,17.6
2018-04-07T09:06:07.648Z,17.4
2018-04-07T09:07:09.028Z,17.3
2018-04-07T09:08:10.404Z,17.1
2018-04-07T09:09:11.786Z,17.1
2018-04-07T09:10:13.167Z,17.0
2018-04-07T09:11:14.549Z,17.0
2018-04-07T09:12:15.925Z,17.0
2018-04-07T09:13:17.306Z,17.1
2018-04-07T09:14:18.677Z,17.1
2018-04-07T09:15:20.058Z,17.1
2018-04-07T09:16:21.431Z,17.0
2018-04-07T09:17:22.810Z,17.0
2018-04-07T09:18:24.748Z,17.1
2018-04-07T09:19:26.177Z,17.1
2018-04-07T09:20:27.635Z,17.0
2018-04-07T09:21:28.986Z,16.9
2018-04-07T09:22:30.364Z,16.9
2018-04-07T09:23:31.750Z,17.0
2018-04-07T09:24:33.134Z,17.1
2018-04-07T09:25:34.506Z,17.1
2018-04-07T09:26:35.886Z,17.2
2018-04-07T09:27:37.265Z,17.4
2018-04-07T09:28:38.647Z,17.5
2018-04-07T09:29:40.015Z,17.6
2018-04-07T09:30:41.401Z,17.7
2018-04-07T09:31:42.776Z,17.7
2018-04-07T09:32:44.156Z,17.8
2018-04-07T09:33:45.533Z,17.8
2018-04-07T09:34:46.916Z,18.0
2018-04-07T09:35:48.304Z,18.1
2018-04-07T09:36:49.676Z,18.2
2018-04-07T09:37:51.064Z,18.1
2018-04-07T09:38:52.445Z,18.2
2018-04-07T09:39:53.826Z,18.2
2018-04-07T09:40:55.231Z,18.3
2018-04-07T09:41:56.609Z,18.4
2018-04-07T09:42:58.119Z,18.4
2018-04-07T09:43:59.506Z,18.4
2018-04-07T09:45:00.888Z,18.4
2018-04-07T09:46:02.268Z,18.6
2018-04-07T09:47:03.657Z,18.6
2018-04-07T09:48:05.063Z,18.6
2018-04-07T09:49:06.440Z,18.7
2018-04-07T09:50:07.808Z,18.8
2018-04-07T09:51:09.193Z,19.0
2018-04-07T09:52:10.575Z,19.0
2018-04-07T09:53:11.970Z,19.0
2018-04-07T09:54:13.343Z,19.0
2018-04-07T09:55:14.737Z,19.1
2018-04-07T09:56:16.128Z,19.0
2018-04-07T09:57:17.527Z,19.1
2018-04-07T09:58:18.913Z,19.3
2018-04-07T09:59:20.297Z,19.4
2018-04-07T10:00:21.672Z,19.5
2018-04-07T10:01:23.062Z,19.4
2018-04-07T10:02:24.451Z,19.4
2018-04-07T10:03:25.863Z,19.5
2018-04-07T10:04:27.245Z,19.4
2018-04-07T10:05:28.630Z,19.4
2018-04-07T10:06:30.009Z,19.5
2018-04-07T10:07:31.385Z,19.4
2018-04-07T10:08:32.783Z,19.4
2018-04-07T10:09:34.179Z,19.2
2018-04-07T10:10:35.574Z,19.1
2018-04-07T10:11:36.955Z,19.1
2018-04-07T10:12:38.337Z,19.2
2018-04-07T10:13:39.763Z,19.3
2018-04-07T10:14:41.120Z,19.5
2018-04-07T10:15:42.503Z,19.5
2018-04-07T10:16:43.893Z,19.7
2018-04-07T10:17:45.264Z,19.7
2018-04-07T10:18:46.645Z,19.7
2018-04-07T10:19:48.040Z,19.7
2018-04-07T10:20:49.414Z,19.7
2018-04-07T10:21:50.795Z,19.7
2018-04-07T10:22:52.178Z,19.7
2018-04-07T10:23:53.571Z,19.8
2018-04-07T10:24:54.968Z,19.8
2018-04-07T10:25:56.359Z,19.7
2018-04-07T10:26:57.729Z,19.7
2018-04-07T10:27:59.117Z,19.7
2018-04-07T10:29:00.510Z,19.9
2018-04-07T10:30:01.891Z,20.0
2018-04-07T10:31:03.286Z,20.1
2018-04-07T10:32:04.664Z,20.1
2018-04-07T10:33:06.041Z,20.1
2018-04-07T10:34:07.422Z,19.9
2018-04-07T10:35:08.810Z,19.9
2018-04-07T10:36:10.186Z,19.9
2018-04-07T10:37:11.565Z,19.8
2018-04-07T10:38:12.953Z,19.9
2018-04-07T10:39:14.345Z,19.8
2018-04-07T10:40:15.721Z,19.8
2018-04-07T10:41:17.105Z,19.8
2018-04-07T10:42:18.487Z,19.8
2018-04-07T10:43:19.864Z,19.7
2018-04-07T10:44:21.246Z,19.7
2018-04-07T10:45:22.637Z,19.8
2018-04-07T10:46:24.740Z,19.9
2018-04-07T10:47:26.142Z,19.9
2018-04-07T10:48:27.529Z,20.1
2018-04-07T10:49:28.901Z,20.0
2018-04-07T10:50:30.285Z,20.2
2018-04-07T10:51:31.681Z,20.2
2018-04-07T10:52:33.073Z,20.2
2018-04-07T10:53:34.445Z,20.2
2018-04-07T10:54:35.809Z,20.2
2018-04-07T10:55:37.202Z,20.1
2018-04-07T10:56:38.583Z,20.2
2018-04-07T10:57:39.983Z,20.2
2018-04-07T10:58:41.374Z,20.3
2018-04-07T10:59:42.758Z,20.3
2018-04-07T11:00:44.135Z,20.3
2018-04-07T11:01:46.388Z,20.2
2018-04-07T11:02:47.771Z,20.2
2018-04-07T11:03:49.149Z,20.1
2018-04-07T11:04:50.534Z,20.2
2018-04-07T11:05:51.914Z,20.3
2018-04-07T11:06:53.300Z,20.2
2018-04-07T11:07:54.695Z,20.2
2018-04-07T11:08:56.090Z,20.3
2018-04-07T11:09:57.475Z,20.4
2018-04-07T11:10:58.862Z,20.2
2018-04-07T11:12:00.247Z,20.3
2018-04-07T11:13:01.644Z,20.3
2018-04-07T11:14:03.022Z,20.2
2018-04-07T11:15:04.407Z,20.3
2018-04-07T11:16:05.794Z,20.4
2018-04-07T11:17:07.171Z,20.3
2018-04-07T11:18:08.556Z,20.4
2018-04-07T11:19:09.931Z,20.5
2018-04-07T11:20:11.326Z,20.5
2018-04-07T11:21:12.717Z,20.5
2018-04-07T11:22:14.095Z,20.5
2018-04-07T11:23:15.468Z,20.5
2018-04-07T11:24:16.854Z,20.5
2018-04-07T11:25:18.241Z,20.6
2018-04-07T11:26:19.624Z,20.5
2018-04-07T11:27:21.002Z,20.5
2018-04-07T11:28:22.391Z,20.5
2018-04-07T11:29:23.769Z,20.7
2018-04-07T11:30:25.148Z,20.8
2018-04-07T11:31:26.528Z,21.0
2018-04-07T11:32:27.917Z,21.0
2018-04-07T11:33:29.294Z,21.2
2018-04-07T11:34:30.671Z,21.3
2018-04-07T11:35:32.070Z,21.3
2018-04-07T11:36:33.458Z,21.5
2018-04-07T11:37:34.833Z,21.6
2018-04-07T11:38:36.214Z,21.6
2018-04-07T11:39:37.608Z,21.6
2018-04-07T11:40:38.994Z,21.7
2018-04-07T11:41:40.371Z,21.7
2018-04-07T11:42:41.754Z,21.8
2018-04-07T11:43:43.143Z,21.8
2018-04-07T11:44:44.528Z,21.9
2018-04-07T11:45:45.904Z,21.9
2018-04-07T11:46:47.287Z,21.9
2018-04-07T11:47:48.664Z,22.1
2018-04-07T11:48:50.053Z,22.1
2018-04-07T11:49:51.435Z,22.2
2018-04-07T11:50:52.824Z,22.3
2018-04-07T11:51:54.203Z,22.4
2018-04-07T11:52:55.583Z,22.4
2018-04-07T11:53:56.966Z,22.4
2018-04-07T11:54:58.360Z,22.3
2018-04-07T11:55:59.734Z,22.4
2018-04-07T11:57:01.124Z,22.4
2018-04-07T11:58:02.512Z,22.3
2018-04-07T11:59:03.891Z,22.3
2018-04-07T12:00:05.280Z,22.3
2018-04-07T12:01:06.660Z,22.5
2018-04-07T12:02:08.049Z,22.7
2018-04-07T12:03:09.440Z,22.6
2018-04-07T12:04:10.828Z,22.7
2018-04-07T12:05:12.213Z,22.8
2018-04-07T12:06:13.607Z,22.8
2018-04-07T12:07:14.996Z,22.9
2018-04-07T12:08:16.379Z,22.8
2018-04-07T12:09:17.765Z,22.7
2018-04-07T12:10:19.158Z,22.6
2018-04-07T12:11:20.544Z,22.9
2018-04-07T12:12:21.927Z,22.9
2018-04-07T12:13:23.317Z,23.0
2018-04-07T12:14:24.696Z,23.0
2018-04-07T12:15:26.107Z,22.9
2018-04-07T12:16:27.493Z,22.8
2018-04-07T12:17:28.880Z,22.8
2018-04-07T12:18:30.263Z,23.0
2018-04-07T12:19:31.650Z,23.1
2018-04-07T12:20:33.038Z,23.1
2018-04-07T12:21:34.438Z,23.0
2018-04-07T12:22:35.823Z,23.1
2018-04-07T12:23:38.171Z,23.2
2018-04-07T12:24:40.391Z,23.1
2018-04-07T12:25:42.393Z,23.2
2018-04-07T12:26:44.323Z,23.2
2018-04-07T12:27:46.625Z,23.1
2018-04-07T12:28:48.792Z,23.0
2018-04-07T12:29:50.810Z,23.1
2018-04-07T12:30:53.196Z,23.0
2018-04-07T12:31:55.383Z,23.1
2018-04-07T12:32:57.426Z,23.2
2018-04-07T12:33:58.877Z,23.3
2018-04-07T12:35:00.958Z,23.5
2018-04-07T12:36:02.346Z,23.4
2018-04-07T12:37:03.849Z,23.4
2018-04-07T12:38:05.224Z,23.7
2018-04-07T12:39:06.619Z,23.6
2018-04-07T12:40:07.987Z,23.7
2018-04-07T12:41:09.375Z,23.8
2018-04-07T12:42:10.751Z,23.7
2018-04-07T12:43:12.151Z,23.7
2018-04-07T12:44:13.540Z,23.6
2018-04-07T12:45:14.924Z,23.5
2018-04-07T12:46:16.322Z,23.6
2018-04-07T12:47:17.700Z,23.7
2018-04-07T12:48:19.086Z,23.8
2018-04-07T12:49:20.472Z,23.7
2018-04-07T12:50:21.857Z,23.7
2018-04-07T12:51:23.262Z,23.7
2018-04-07T12:52:24.653Z,23.8
2018-04-07T12:53:26.075Z,23.8
2018-04-07T12:54:27.459Z,23.7
2018-04-07T12:55:28.870Z,23.7
2018-04-07T12:56:30.265Z,23.8
2018-04-07T12:57:31.650Z,23.8
2018-04-07T12:58:33.030Z,23.7
2018-04-07T12:59:34.411Z,23.9
2018-04-07T13:00:35.796Z,23.8
2018-04-07T13:01:37.178Z,23.8
2018-04-07T13:02:38.575Z,23.8
2018-04-07T13:03:39.956Z,23.8
2018-04-07T13:04:41.329Z,23.9
2018-04-07T13:05:42.718Z,24.0
2018-04-07T13:06:44.097Z,24.1
2018-04-07T13:07:45.477Z,24.1
2018-04-07T13:08:46.862Z,24.1
2018-04-07T13:09:48.247Z,24.0
2018-04-07T13:10:49.645Z,23.9
2018-04-07T13:11:51.042Z,23.8
2018-04-07T13:12:52.434Z,23.8
2018-04-07T13:13:54.492Z,23.9
2018-04-07T13:14:55.915Z,23.9
2018-04-07T13:15:57.339Z,24.0
2018-04-07T13:16:58.733Z,24.0
2018-04-07T13:18:00.120Z,23.9
2018-04-07T13:19:01.517Z,24.0
2018-04-07T13:20:02.978Z,23.9
2018-04-07T13:21:04.377Z,23.8
2018-04-07T13:22:05.760Z,23.8
2018-04-07T13:23:07.154Z,23.7
2018-04-07T13:24:08.535Z,23.8
2018-04-07T13:25:09.934Z,23.8
2018-04-07T13:26:11.321Z,23.8
2018-04-07T13:27:12.704Z,23.9
2018-04-07T13:28:14.598Z,24.0
2018-04-07T13:29:15.982Z,24.0
2018-04-07T13:30:17.368Z,24.1
2018-04-07T13:31:18.745Z,24.1
2018-04-07T13:32:20.125Z,24.0
2018-04-07T13:33:21.507Z,24.0
2018-04-07T13:34:22.888Z,24.0
2018-04-07T13:35:24.277Z,24.0
2018-04-07T13:36:25.668Z,23.9
2018-04-07T13:37:28.310Z,24.0
2018-04-07T13:38:29.688Z,23.9
2018-04-07T13:39:31.064Z,23.9
2018-04-07T13:40:32.445Z,23.8
2018-04-07T13:41:33.818Z,23.8
2018-04-07T13:42:35.209Z,23.9
2018-04-07T13:43:36.849Z,23.9